createdAt,value
2018-12-10T00:02:14.485Z,67.41
2018-12-10T00:04:48.577Z,68.27
2018-12-10T00:07:22.482Z,68.56
2018-12-10T00:09:56.595Z,68.61
2018-12-10T00:12:30.407Z,68.83
2018-12-10T00:15:04.801Z,67.83
2018-12-10T00:17:38.679Z,67.41
2018-12-10T00:20:12.837Z,66.61
2018-12-10T00:22:46.949Z,66.27
2018-12-10T00:25:20.857Z,66.33
2018-12-10T00:27:54.742Z,66.02
2018-12-10T00:30:28.877Z,65.42
2018-12-10T00:33:02.682Z,65.26
2018-12-10T00:35:36.487Z,64.84
2018-12-10T00:38:10.291Z,64.85
2018-12-10T00:40:43.995Z,65.18
2018-12-10T00:43:17.853Z,65.29
2018-12-10T00:45:51.789Z,65.51
2018-12-10T00:48:25.662Z,65.40
2018-12-10T00:50:59.726Z,65.02
2018-12-10T00:53:33.632Z,64.75
2018-12-10T00:56:07.540Z,65.13
2018-12-10T00:58:41.755Z,65.97
2018-12-10T01:01:15.871Z,65.63
2018-12-10T01:03:49.772Z,66.03
2018-12-10T01:06:23.783Z,66.23
2018-12-10T01:08:57.588Z,65.78
2018-12-10T01:11:31.347Z,65.74
2018-12-10T01:14:05.403Z,65.42
2018-12-10T01:16:39.523Z,65.68
2018-12-10T01:19:15.368Z,65.56
2018-12-10T01:21:49.171Z,65.75
2018-12-10T01:24:23.285Z,65.98
2018-12-10T01:26:57.091Z,65.75
2018-12-10T01:29:30.998Z,65.50
2018-12-10T01:32:04.903Z,65.26
2018-12-10T01:34:39.021Z,64.71
2018-12-10T01:37:13.704Z,64.67
2018-12-10T01:39:47.650Z,65.04
2018-12-10T01:42:21.409Z,65.15
2018-12-10T01:44:55.570Z,65.73
2018-12-10T01:47:29.536Z,67.46
2018-12-10T01:50:04.199Z,67.37
2018-12-10T01:52:38.006Z,67.24
2018-12-10T01:55:12.322Z,66.95
2018-12-10T01:57:46.296Z,66.33
2018-12-10T02:00:20.651Z,66.03
2018-12-10T02:02:56.503Z,65.83
2018-12-10T02:05:30.442Z,65.86
2018-12-10T02:08:04.419Z,65.83
2018-12-10T02:10:38.308Z,65.38
2018-12-10T02:13:12.207Z,65.34
2018-12-10T02:15:46.363Z,65.19
2018-12-10T02:18:20.324Z,65.12
2018-12-10T02:20:54.365Z,65.39
2018-12-10T02:23:28.177Z,65.10
2018-12-10T02:26:03.204Z,65.50
2018-12-10T02:28:42.946Z,65.82
2018-12-10T02:31:16.858Z,65.55
2018-12-10T02:33:50.763Z,65.94
2018-12-10T02:36:25.176Z,65.75
2018-12-10T02:38:59.292Z,66.00
2018-12-10T02:41:36.272Z,65.81
2018-12-10T02:44:10.283Z,65.97
2018-12-10T02:46:44.190Z,65.41
2018-12-10T02:49:18.160Z,66.04
2018-12-10T02:51:52.211Z,65.97
2018-12-10T02:54:25.954Z,65.93
2018-12-10T02:57:00.025Z,66.14
2018-12-10T02:59:33.941Z,66.72
2018-12-10T03:02:07.853Z,66.72
2018-12-10T03:04:41.747Z,66.65
2018-12-10T03:07:15.609Z,66.50
2018-12-10T03:09:49.765Z,66.92
2018-12-10T03:12:23.576Z,67.57
2018-12-10T03:14:57.374Z,67.68
2018-12-10T03:17:31.384Z,67.65
2018-12-10T03:20:05.402Z,67.80
2018-12-10T03:22:39.148Z,67.76
2018-12-10T03:25:13.515Z,68.05
2018-12-10T03:27:47.600Z,67.99
2018-12-10T03:30:21.670Z,67.93
2018-12-10T03:32:55.858Z,67.97
2018-12-10T03:35:29.975Z,67.98
2018-12-10T03:38:03.715Z,67.39
2018-12-10T03:40:37.882Z,67.04
2018-12-10T03:43:11.889Z,66.61
2018-12-10T03:45:45.798Z,66.38
2018-12-10T03:48:19.603Z,66.29
2018-12-10T03:50:53.508Z,66.37
2018-12-10T03:53:27.521Z,66.30
2018-12-10T03:56:01.427Z,66.76
2018-12-10T03:58:35.485Z,66.34
2018-12-10T04:01:10.528Z,66.74
2018-12-10T04:03:46.533Z,67.33
2018-12-10T04:06:20.536Z,67.31
2018-12-10T04:08:54.320Z,67.43
2018-12-10T04:11:28.453Z,67.04
2018-12-10T04:14:02.569Z,66.96
2018-12-10T04:16:36.270Z,67.20
2018-12-10T04:19:10.381Z,67.19
2018-12-10T04:21:44.291Z,67.74
2018-12-10T04:24:18.285Z,67.86
2018-12-10T04:26:52.314Z,67.46
2018-12-10T04:29:26.174Z,67.22
2018-12-10T04:32:00.332Z,67.50
2018-12-10T04:34:34.002Z,66.92
2018-12-10T04:37:08.038Z,66.77
2018-12-10T04:39:41.945Z,66.50
2018-12-10T04:42:15.854Z,67.66
2018-12-10T04:44:49.555Z,67.43
2018-12-10T04:47:23.462Z,67.09
2018-12-10T04:49:57.498Z,68.11
2018-12-10T04:52:31.381Z,68.30
2018-12-10T04:55:05.595Z,67.82
2018-12-10T04:57:39.606Z,67.78
2018-12-10T05:00:13.511Z,67.72
2018-12-10T05:02:47.213Z,67.21
2018-12-10T05:05:21.325Z,66.74
2018-12-10T05:07:55.351Z,66.85
2018-12-10T05:10:29.347Z,66.57
2018-12-10T05:13:03.297Z,66.23
2018-12-10T05:15:37.165Z,66.22
2018-12-10T05:18:11.373Z,66.20
2018-12-10T05:20:45.286Z,66.60
2018-12-10T05:23:19.135Z,66.73
2018-12-10T05:25:53.308Z,67.02
2018-12-10T05:28:27.310Z,67.32
2018-12-10T05:31:01.320Z,67.34
2018-12-10T05:33:35.169Z,67.01
2018-12-10T05:36:09.112Z,67.14
2018-12-10T05:38:43.147Z,67.29
2018-12-10T05:41:16.969Z,67.42
2018-12-10T05:43:50.706Z,67.48
2018-12-10T05:46:24.821Z,67.38
2018-12-10T05:48:58.878Z,67.77
2018-12-10T05:51:32.854Z,67.79
2018-12-10T05:54:06.840Z,68.54
2018-12-10T05:56:40.904Z,68.52
2018-12-10T05:59:14.771Z,68.18
2018-12-10T06:01:48.821Z,68.34
2018-12-10T06:04:22.728Z,68.32
2018-12-10T06:06:57.052Z,68.21
2018-12-10T06:09:30.917Z,68.11
2018-12-10T06:12:05.067Z,67.72
2018-12-10T06:14:39.178Z,67.73
2018-12-10T06:17:12.873Z,68.23
2018-12-10T06:19:46.785Z,67.70
2018-12-10T06:22:20.695Z,67.94
2018-12-10T06:24:54.325Z,67.22
2018-12-10T06:27:28.310Z,67.07
2018-12-10T06:30:02.276Z,67.09
2018-12-10T06:32:36.424Z,66.88
2018-12-10T06:35:10.582Z,68.28
2018-12-10T06:37:44.660Z,69.33
2018-12-10T06:40:18.536Z,68.40
2018-12-10T06:42:52.454Z,68.93
2018-12-10T06:45:26.574Z,68.03
2018-12-10T06:48:00.457Z,68.55
2018-12-10T06:50:34.595Z,68.60
2018-12-10T06:53:08.402Z,68.23
2018-12-10T06:55:42.715Z,67.88
2018-12-10T06:58:16.529Z,67.02
2018-12-10T07:00:50.735Z,66.65
2018-12-10T07:03:24.539Z,66.73
2018-12-10T07:05:58.243Z,67.10
2018-12-10T07:08:32.252Z,67.13
2018-12-10T07:11:06.291Z,67.29
2018-12-10T07:13:40.579Z,66.70
2018-12-10T07:16:14.796Z,66.43
2018-12-10T07:18:48.497Z,66.11
2018-12-10T07:21:22.607Z,66.02
2018-12-10T07:23:56.517Z,66.00
2018-12-10T07:26:30.827Z,66.02
2018-12-10T07:29:05.046Z,65.94
2018-12-10T07:31:39.055Z,66.54
2018-12-10T07:34:12.875Z,66.10
2018-12-10T07:36:46.973Z,65.87
2018-12-10T07:39:20.881Z,65.65
2018-12-10T07:41:54.788Z,65.72
2018-12-10T07:44:28.494Z,65.79
2018-12-10T07:47:02.380Z,65.46
2018-12-10T07:49:36.510Z,65.35
2018-12-10T07:52:10.312Z,65.85
2018-12-10T07:54:44.276Z,66.33
2018-12-10T07:57:18.290Z,66.43
2018-12-10T07:59:52.330Z,66.21
2018-12-10T08:02:26.351Z,66.38
2018-12-10T08:05:00.211Z,66.47
2018-12-10T08:07:34.371Z,66.17
2018-12-10T08:10:08.694Z,65.61
2018-12-10T08:12:42.594Z,65.50
2018-12-10T08:15:16.520Z,65.79
2018-12-10T08:17:50.510Z,65.40
2018-12-10T08:20:24.378Z,65.62
2018-12-10T08:22:58.532Z,65.53
2018-12-10T08:25:32.540Z,65.77
2018-12-10T08:28:06.652Z,66.22
2018-12-10T08:30:40.511Z,66.28
2018-12-10T08:33:14.472Z,66.70
2018-12-10T08:35:48.477Z,66.44
2018-12-10T08:38:22.389Z,65.91
2018-12-10T08:40:56.498Z,66.46
2018-12-10T08:43:30.507Z,66.20
2018-12-10T08:46:04.538Z,65.89
2018-12-10T08:48:38.466Z,66.31
2018-12-10T08:51:12.680Z,66.03
2018-12-10T08:53:46.746Z,65.62
2018-12-10T08:56:20.757Z,65.46
2018-12-10T08:58:54.567Z,65.74
2018-12-10T09:01:28.572Z,66.26
2018-12-10T09:04:02.380Z,66.58
2018-12-10T09:06:36.189Z,66.70
2018-12-10T09:09:10.091Z,66.54
2018-12-10T09:11:44.149Z,65.99
2018-12-10T09:14:18.213Z,65.79
2018-12-10T09:16:52.228Z,66.07
2018-12-10T09:19:26.299Z,65.92
2018-12-10T09:22:00.246Z,65.53
2018-12-10T09:24:34.206Z,64.79
2018-12-10T09:27:08.361Z,64.81
2018-12-10T09:29:42.414Z,64.41
2018-12-10T09:32:17.049Z,63.54
2018-12-10T09:34:51.214Z,64.10
2018-12-10T09:37:25.116Z,64.74
2018-12-10T09:39:58.928Z,64.63
2018-12-10T09:42:32.686Z,64.89
2018-12-10T09:45:06.955Z,64.93
2018-12-10T09:47:40.690Z,63.76
2018-12-10T09:50:14.731Z,63.66
2018-12-10T09:52:48.745Z,63.81
2018-12-10T09:55:22.876Z,63.01
2018-12-10T09:57:56.988Z,62.54
2018-12-10T10:00:30.702Z,62.37
2018-12-10T10:03:04.906Z,62.32
2018-12-10T10:05:38.710Z,62.24
2018-12-10T10:08:12.618Z,62.26
2018-12-10T10:10:46.677Z,60.94
2018-12-10T10:13:20.841Z,61.93
2018-12-10T10:15:54.750Z,62.31
2018-12-10T10:18:28.554Z,61.99
2018-12-10T10:21:02.563Z,60.80
2018-12-10T10:23:36.471Z,61.32
2018-12-10T10:26:10.379Z,60.10
2018-12-10T10:28:44.592Z,59.90
2018-12-10T10:31:18.704Z,59.97
2018-12-10T10:33:52.668Z,60.56
2018-12-10T10:36:26.805Z,61.41
2018-12-10T10:39:00.835Z,60.79
2018-12-10T10:41:34.954Z,60.69
2018-12-10T10:44:08.777Z,60.56
2018-12-10T10:46:42.512Z,60.18
2018-12-10T10:49:16.531Z,60.39
2018-12-10T10:51:50.581Z,60.41
2018-12-10T10:54:24.486Z,60.42
2018-12-10T10:56:58.435Z,60.62
2018-12-10T10:59:32.506Z,60.87
2018-12-10T11:02:08.458Z,61.31
2018-12-10T11:04:42.286Z,61.66
2018-12-10T11:07:16.380Z,61.49
2018-12-10T11:09:50.284Z,61.44
2018-12-10T11:12:24.191Z,61.50
2018-12-10T11:14:58.101Z,61.39
2018-12-10T11:17:32.108Z,61.23
2018-12-10T11:20:08.269Z,60.92
2018-12-10T11:22:42.175Z,60.27
2018-12-10T11:25:16.286Z,60.66
2018-12-10T11:27:50.194Z,60.35
2018-12-10T11:30:24.101Z,60.11
2018-12-10T11:32:57.908Z,60.39
2018-12-10T11:35:31.713Z,60.05
2018-12-10T11:38:05.618Z,59.73
2018-12-10T11:40:39.526Z,60.05
2018-12-10T11:43:13.377Z,60.34
2018-12-10T11:45:47.545Z,60.75
2018-12-10T11:48:21.348Z,59.95
2018-12-10T11:50:55.256Z,60.44
2018-12-10T11:53:29.040Z,60.54
2018-12-10T11:56:03.153Z,60.83
2018-12-10T11:58:37.143Z,61.51
2018-12-10T12:01:11.295Z,61.43
2018-12-10T12:03:45.100Z,61.58
2018-12-10T12:06:19.008Z,61.37
2018-12-10T12:08:52.914Z,60.90
2018-12-10T12:11:26.823Z,60.58
2018-12-10T12:14:00.934Z,60.53
2018-12-10T12:16:34.739Z,60.25
2018-12-10T12:19:11.429Z,60.30
2018-12-10T12:21:44.500Z,60.03
2018-12-10T12:24:18.372Z,60.57
2018-12-10T12:26:52.417Z,61.30
2018-12-10T12:29:26.220Z,62.38
2018-12-10T12:32:00.332Z,63.49
2018-12-10T12:34:34.208Z,63.88
2018-12-10T12:37:08.161Z,64.07
2018-12-10T12:39:42.161Z,64.04
2018-12-10T12:42:16.063Z,63.13
2018-12-10T12:44:50.072Z,63.29
2018-12-10T12:47:23.775Z,63.09
2018-12-10T12:49:57.750Z,62.91
2018-12-10T12:52:31.901Z,62.96
2018-12-10T12:55:05.727Z,63.02
2018-12-10T12:57:39.918Z,63.19
2018-12-10T13:00:13.782Z,63.01
2018-12-10T13:02:47.957Z,63.09
2018-12-10T13:05:21.946Z,62.69
2018-12-10T13:07:56.159Z,62.57
2018-12-10T13:10:29.966Z,62.16
2018-12-10T13:13:03.835Z,62.42
2018-12-10T13:15:37.986Z,62.40
2018-12-10T13:18:11.789Z,62.27
2018-12-10T13:20:45.697Z,63.04
2018-12-10T13:23:19.570Z,63.80
2018-12-10T13:25:53.659Z,63.54
2018-12-10T13:28:27.832Z,64.01
2018-12-10T13:31:01.939Z,63.63
2018-12-10T13:33:35.953Z,63.47
2018-12-10T13:36:09.977Z,63.20
2018-12-10T13:38:44.072Z,63.06
2018-12-10T13:41:17.875Z,63.00
2018-12-10T13:43:51.886Z,62.55
2018-12-10T13:46:26.100Z,62.90
2018-12-10T13:48:59.873Z,62.68
2018-12-10T13:51:33.914Z,62.92
2018-12-10T13:54:07.722Z,62.76
2018-12-10T13:56:41.733Z,62.70
2018-12-10T13:59:15.636Z,62.98
2018-12-10T14:01:49.549Z,64.24
2018-12-10T14:04:24.892Z,64.29
2018-12-10T14:06:58.753Z,64.25
2018-12-10T14:09:32.670Z,64.75
2018-12-10T14:12:06.708Z,64.80
2018-12-10T14:14:40.515Z,64.44
2018-12-10T14:17:14.529Z,64.98
2018-12-10T14:19:49.465Z,65.00
2018-12-10T14:22:23.644Z,64.77
2018-12-10T14:24:57.737Z,64.40
2018-12-10T14:27:32.159Z,64.21
2018-12-10T14:30:06.743Z,64.53
2018-12-10T14:32:40.733Z,64.37
2018-12-10T14:35:14.540Z,64.34
2018-12-10T14:37:48.545Z,63.92
2018-12-10T14:40:22.573Z,63.86
2018-12-10T14:42:56.464Z,63.95
2018-12-10T14:45:31.257Z,63.43
2018-12-10T14:48:05.303Z,63.17
2018-12-10T14:50:39.310Z,62.67
2018-12-10T14:53:13.218Z,62.74
2018-12-10T14:55:47.127Z,62.68
2018-12-10T14:58:20.930Z,62.59
2018-12-10T15:00:54.743Z,62.29
2018-12-10T15:03:28.746Z,62.30
2018-12-10T15:06:02.601Z,62.02
2018-12-10T15:08:36.661Z,61.85
2018-12-10T15:11:10.568Z,62.32
2018-12-10T15:13:44.578Z,62.46
2018-12-10T15:16:18.485Z,62.61
2018-12-10T15:18:52.597Z,62.78
2018-12-10T15:21:26.505Z,62.39
2018-12-10T15:24:00.414Z,62.74
2018-12-10T15:26:34.217Z,62.69
2018-12-10T15:29:07.925Z,62.36
2018-12-10T15:31:41.931Z,62.13
2018-12-10T15:34:15.733Z,61.41
2018-12-10T15:36:49.553Z,62.04
2018-12-10T15:39:23.449Z,64.79
2018-12-10T15:41:57.255Z,65.04
2018-12-10T15:44:31.166Z,65.53
2018-12-10T15:47:05.274Z,66.77
2018-12-10T15:49:39.035Z,66.07
2018-12-10T15:52:13.099Z,66.21
2018-12-10T15:54:47.095Z,67.06
2018-12-10T15:57:20.879Z,66.97
2018-12-10T15:59:54.870Z,67.72
2018-12-10T16:02:29.023Z,67.59
2018-12-10T16:05:03.031Z,65.98
2018-12-10T16:07:37.143Z,65.62
2018-12-10T16:10:11.050Z,66.08
2018-12-10T16:12:44.958Z,65.36
2018-12-10T16:15:18.810Z,65.49
2018-12-10T16:17:52.898Z,65.34
2018-12-10T16:20:26.987Z,64.99
2018-12-10T16:23:00.894Z,65.09
2018-12-10T16:25:34.598Z,65.21
2018-12-10T16:28:08.505Z,64.78
2018-12-10T16:30:42.720Z,64.43
2018-12-10T16:33:16.590Z,64.30
2018-12-10T16:35:51.249Z,64.60
2018-12-10T16:38:25.156Z,64.15
2018-12-10T16:40:59.065Z,64.18
2018-12-10T16:43:33.278Z,64.77
2018-12-10T16:46:07.192Z,65.47
2018-12-10T16:48:41.196Z,65.29
2018-12-10T16:51:15.049Z,65.25
2018-12-10T16:53:50.089Z,64.87
2018-12-10T16:56:24.248Z,65.12
2018-12-10T16:58:58.053Z,65.06
2018-12-10T17:01:31.962Z,64.81
2018-12-10T17:04:05.948Z,64.67
2018-12-10T17:06:39.721Z,65.33
2018-12-10T17:09:13.890Z,65.17
2018-12-10T17:11:47.999Z,65.15
2018-12-10T17:14:21.803Z,65.22
2018-12-10T17:16:55.813Z,65.15
2018-12-10T17:19:29.424Z,64.80
2018-12-10T17:22:03.424Z,64.92
2018-12-10T17:24:37.433Z,64.74
2018-12-10T17:27:11.307Z,65.22
2018-12-10T17:29:45.350Z,65.19
2018-12-10T17:32:19.059Z,65.42
2018-12-10T17:34:52.877Z,65.29
2018-12-10T17:37:26.767Z,65.06
2018-12-10T17:40:00.535Z,64.51
2018-12-10T17:42:34.601Z,65.08
2018-12-10T17:45:09.612Z,64.87
2018-12-10T17:47:43.778Z,65.07
2018-12-10T17:50:17.735Z,65.60
2018-12-10T17:52:51.744Z,65.66
2018-12-10T17:55:25.500Z,65.45
2018-12-10T17:57:59.330Z,65.33
2018-12-10T18:00:33.465Z,65.29
2018-12-10T18:03:07.372Z,65.74
2018-12-10T18:05:41.282Z,66.40
2018-12-10T18:08:15.288Z,66.18
2018-12-10T18:10:49.093Z,65.66
2018-12-10T18:13:23.285Z,65.80
2018-12-10T18:15:57.269Z,65.27
2018-12-10T18:18:31.430Z,65.39
2018-12-10T18:21:05.101Z,66.00
2018-12-10T18:23:39.142Z,65.69
2018-12-10T18:26:13.051Z,66.42
2018-12-10T18:28:47.137Z,65.98
2018-12-10T18:31:21.165Z,66.61
2018-12-10T18:33:55.250Z,66.78
2018-12-10T18:36:29.164Z,67.51
2018-12-10T18:39:03.609Z,67.51
2018-12-10T18:41:37.517Z,67.09
2018-12-10T18:44:11.425Z,66.94
2018-12-10T18:46:45.175Z,67.40
2018-12-10T18:49:19.137Z,67.39
2018-12-10T18:51:53.005Z,67.38
2018-12-10T18:54:27.177Z,68.01
2018-12-10T18:57:01.164Z,68.43
2018-12-10T18:59:34.998Z,67.50
2018-12-10T19:02:08.787Z,67.63
2018-12-10T19:04:42.885Z,67.12
2018-12-10T19:07:16.808Z,67.30
2018-12-10T19:09:50.802Z,68.22
2018-12-10T19:12:24.915Z,67.70
2018-12-10T19:14:59.231Z,67.27
2018-12-10T19:17:33.142Z,67.08
2018-12-10T19:20:13.485Z,67.43
2018-12-10T19:22:43.718Z,67.65
2018-12-10T19:25:17.603Z,68.22
2018-12-10T19:27:51.739Z,67.83
2018-12-10T19:30:25.543Z,67.83
2018-12-10T19:32:59.452Z,67.84
2018-12-10T19:35:33.560Z,68.08
2018-12-10T19:38:07.373Z,68.01
2018-12-10T19:40:41.273Z,68.27
2018-12-10T19:43:15.365Z,67.65
2018-12-10T19:45:49.294Z,68.53
2018-12-10T19:48:23.302Z,68.80
2018-12-10T19:50:57.317Z,68.97
2018-12-10T19:53:31.325Z,68.16
2018-12-10T19:56:05.180Z,67.87
2018-12-10T19:58:39.347Z,67.91
2018-12-10T20:01:13.645Z,67.85
2018-12-10T20:03:47.995Z,68.68
2018-12-10T20:06:27.926Z,68.48
2018-12-10T20:09:02.034Z,68.50
2018-12-10T20:11:35.946Z,68.44
2018-12-10T20:14:10.156Z,68.49
2018-12-10T20:16:44.281Z,68.91
2018-12-10T20:19:18.292Z,68.25
2018-12-10T20:21:52.185Z,68.85
2018-12-10T20:24:26.093Z,68.18
2018-12-10T20:27:00.106Z,67.72
2018-12-10T20:29:34.219Z,69.12
2018-12-10T20:32:10.007Z,69.02
2018-12-10T20:34:44.080Z,68.84
2018-12-10T20:37:17.877Z,68.72
2018-12-10T20:39:51.891Z,68.99
2018-12-10T20:42:25.593Z,68.53
2018-12-10T20:44:59.405Z,68.74
2018-12-10T20:47:33.202Z,69.84
2018-12-10T20:50:07.473Z,69.01
2018-12-10T20:52:41.735Z,68.88
2018-12-10T20:55:15.525Z,68.46
2018-12-10T20:57:49.548Z,68.78
2018-12-10T21:00:23.455Z,68.47
2018-12-10T21:02:57.191Z,67.99
2018-12-10T21:05:31.203Z,67.48
2018-12-10T21:08:05.180Z,67.84
2018-12-10T21:10:39.004Z,67.75
2018-12-10T21:13:13.196Z,67.47
2018-12-10T21:15:47.252Z,67.70
2018-12-10T21:18:21.427Z,67.33
2018-12-10T21:20:55.227Z,67.58
2018-12-10T21:23:29.133Z,67.92
2018-12-10T21:26:03.043Z,67.60
2018-12-10T21:28:36.922Z,67.38
2018-12-10T21:31:10.812Z,67.36
2018-12-10T21:33:44.863Z,67.69
2018-12-10T21:36:19.590Z,67.68
2018-12-10T21:38:53.507Z,67.69
2018-12-10T21:41:27.713Z,68.47
2018-12-10T21:44:01.622Z,68.53
2018-12-10T21:46:35.234Z,67.93
2018-12-10T21:49:09.192Z,67.75
2018-12-10T21:51:43.308Z,69.05
2018-12-10T21:54:17.452Z,69.05
2018-12-10T21:56:51.564Z,68.33
2018-12-10T21:59:25.473Z,67.62
2018-12-10T22:01:59.549Z,67.48
2018-12-10T22:04:33.558Z,68.10
2018-12-10T22:07:07.602Z,67.59
2018-12-10T22:09:41.411Z,68.57
2018-12-10T22:12:15.108Z,68.70
2018-12-10T22:14:49.668Z,68.23
2018-12-10T22:17:23.451Z,68.76
2018-12-10T22:19:57.561Z,67.99
2018-12-10T22:22:31.357Z,68.41
2018-12-10T22:25:05.773Z,68.05
2018-12-10T22:27:39.987Z,68.69
2018-12-10T22:30:13.832Z,68.77
2018-12-10T22:32:47.685Z,68.37
2018-12-10T22:35:21.571Z,67.48
2018-12-10T22:37:55.516Z,67.70
2018-12-10T22:40:29.529Z,67.54
2018-12-10T22:43:03.387Z,67.87
2018-12-10T22:45:37.544Z,67.92
2018-12-10T22:48:11.210Z,68.45
2018-12-10T22:50:45.062Z,67.95
2018-12-10T22:53:19.162Z,68.11
2018-12-10T22:55:52.966Z,68.00
2018-12-10T22:58:27.078Z,68.05
2018-12-10T23:01:01.073Z,67.74
2018-12-10T23:03:34.996Z,67.53
2018-12-10T23:06:08.668Z,68.41
2018-12-10T23:08:43.499Z,68.72
2018-12-10T23:11:17.434Z,68.19
2018-12-10T23:13:51.239Z,68.09
2018-12-10T23:16:25.044Z,68.18
2018-12-10T23:18:58.841Z,68.43
2018-12-10T23:21:32.858Z,68.58
2018-12-10T23:24:06.768Z,68.79
2018-12-10T23:26:40.675Z,68.45
2018-12-10T23:29:14.484Z,68.64
2018-12-10T23:31:48.692Z,68.79
2018-12-10T23:34:22.462Z,68.63
2018-12-10T23:36:56.403Z,68.34
2018-12-10T23:39:30.412Z,67.97
2018-12-10T23:42:04.183Z,68.32
2018-12-10T23:44:43.870Z,68.63
2018-12-10T23:47:17.766Z,68.88
2018-12-10T23:49:51.726Z,68.76
2018-12-10T23:52:25.785Z,68.90
2018-12-10T23:55:00.102Z,69.13
2018-12-10T23:57:33.804Z,68.64
